Time;durP1;ratioP1;P1;durP2;ratioP2;P2;SDS_P1;SDS_P2;PMS_P1;PMS_P2;Temp;Humidity;BMP_temperature;BMP_pressure;BME280_temperature;BME280_humidity;BME280_pressure;Samples;Min_cycle;Max_cycle;Signal;HPM_P1;HPM_P2
2022/04/07 00:01:45;;;;;;;13.60;9.87;;;;;;;7.38;100.00;98349.38;5011723;28;20041;-78
2022/04/07 00:04:11;;;;;;;13.20;9.70;;;;;;;7.36;100.00;98349.56;5028648;28;20489;-77
2022/04/07 00:06:37;;;;;;;12.13;10.10;;;;;;;7.35;100.00;98355.06;4998211;28;20034;-78
2022/04/07 00:09:03;;;;;;;13.95;10.43;;;;;;;7.29;100.00;98345.28;5012816;28;20025;-80
2022/04/07 00:11:29;;;;;;;;;;;;;;;7.32;100.00;98345.69;5001311;28;20033;-78
2022/04/07 00:13:54;;;;;;;;;;;;;;;7.30;100.00;98341.59;5020097;28;19913;-80
2022/04/07 00:16:19;;;;;;;13.87;11.20;;;;;;;7.25;100.00;98338.72;5012024;28;19916;-80
2022/04/07 00:18:46;;;;;;;13.50;10.03;;;;;;;7.27;100.00;98328.72;5015184;28;20135;-78
2022/04/07 00:21:12;;;;;;;13.02;10.63;;;;;;;7.32;100.00;98328.94;5007653;28;20037;-78
2022/04/07 00:23:39;;;;;;;15.90;10.23;;;;;;;7.26;100.00;98316.47;5002207;28;20032;-77
2022/04/07 00:26:05;;;;;;;12.20;10.40;;;;;;;7.33;100.00;98328.75;4994845;28;20117;-80
2022/04/07 00:28:30;;;;;;;13.15;9.55;;;;;;;7.29;100.00;98324.84;5001103;28;20157;-80
2022/04/07 00:30:57;;;;;;;9.57;7.70;;;;;;;7.22;100.00;98309.94;5019781;28;20086;-77
2022/04/07 00:33:23;;;;;;;7.32;6.38;;;;;;;7.19;100.00;98319.94;4995413;28;20064;-80
2022/04/07 00:35:48;;;;;;;8.47;5.77;;;;;;;7.15;100.00;98318.69;5015127;28;20493;-80
2022/04/07 00:38:14;;;;;;;8.67;5.17;;;;;;;7.01;100.00;98332.94;5019775;28;20021;-79
2022/04/07 00:40:39;;;;;;;6.30;4.83;;;;;;;6.96;100.00;98343.31;5022592;28;20048;-80
2022/04/07 00:43:04;;;;;;;7.20;4.10;;;;;;;6.94;100.00;98337.38;5012663;28;20356;-80
2022/04/07 00:45:30;;;;;;;4.35;3.42;;;;;;;6.90;100.00;98330.84;4996586;28;20040;-80
2022/04/07 00:47:55;;;;;;;4.60;2.77;;;;;;;6.86;100.00;98326.94;5014019;28;20037;-77
2022/04/07 00:50:21;;;;;;;8.47;2.70;;;;;;;6.84;100.00;98321.03;4995309;28;20702;-78
2022/04/07 00:52:51;;;;;;;4.10;2.87;;;;;;;6.81;100.00;98316.09;5014593;28;20040;-79
2022/04/07 00:55:18;;;;;;;5.55;2.63;;;;;;;6.71;100.00;98309.34;5011801;28;20072;-79
2022/04/07 00:57:44;;;;;;;5.07;2.35;;;;;;;6.73;100.00;98315.25;5003093;28;20021;-80
2022/04/07 01:00:11;;;;;;;2.92;2.35;;;;;;;6.78;100.00;98319.97;5019798;28;20371;-77
2022/04/07 01:02:37;;;;;;;3.53;2.33;;;;;;;6.74;100.00;98319.56;4997026;28;20047;-81
2022/04/07 01:05:04;;;;;;;10.57;2.37;;;;;;;6.68;100.00;98304.44;5021556;28;20041;-78
2022/04/07 01:07:30;;;;;;;3.30;2.25;;;;;;;6.69;100.00;98306.06;4996342;28;20036;-80
2022/04/07 01:09:55;;;;;;;5.20;2.72;;;;;;;6.57;100.00;98293.56;5021581;28;20032;-80
2022/04/07 01:12:20;;;;;;;4.97;2.43;;;;;;;6.54;100.00;98305.38;4994787;28;20037;-78
2022/04/07 01:15:01;;;;;;;6.47;2.53;;;;;;;6.49;100.00;98298.03;5010754;28;20179;-78
2022/04/07 01:17:28;;;;;;;3.88;2.88;;;;;;;6.51;100.00;98300.50;4992537;28;20120;-80
2022/04/07 01:19:53;;;;;;;;;;;;;;;6.46;100.00;98293.13;5002924;28;20021;-80
2022/04/07 01:22:19;;;;;;;;;;;;;;;6.41;100.00;98284.09;4998995;28;20362;-78
2022/04/07 01:24:46;;;;;;;5.50;3.78;;;;;;;6.44;100.00;98284.53;5011263;28;19909;-77
2022/04/07 01:27:12;;;;;;;4.57;3.65;;;;;;;6.38;100.00;98279.19;5027325;28;20539;-80
2022/04/07 01:29:38;;;;;;;10.70;4.47;;;;;;;6.34;100.00;98274.31;5021935;28;20112;-80
2022/04/07 01:32:11;;;;;;;4.83;3.50;;;;;;;6.28;100.00;98268.97;5007871;28;20041;-80
2022/04/07 01:34:38;;;;;;;6.32;3.47;;;;;;;6.26;100.00;98258.53;5017399;28;20261;-81
2022/04/07 01:37:03;;;;;;;5.40;4.30;;;;;;;6.25;100.00;98256.06;5002148;28;20021;-80
2022/04/07 01:39:29;;;;;;;5.93;3.92;;;;;;;6.22;100.00;98248.53;5020415;28;20036;-78
2022/04/07 01:41:55;;;;;;;4.28;3.75;;;;;;;6.24;100.00;98251.81;5023478;28;20330;-81
2022/04/07 01:44:23;;;;;;;9.20;5.05;;;;;;;6.25;100.00;98248.97;5015420;28;20320;-77
2022/04/07 01:46:48;;;;;;;6.63;4.78;;;;;;;6.32;100.00;98244.53;5011710;28;20469;-80
2022/04/07 01:49:14;;;;;;;6.90;4.75;;;;;;;6.32;100.00;98239.22;5018429;28;20052;-79
2022/04/07 01:51:42;;;;;;;7.45;5.40;;;;;;;6.33;100.00;98240.03;5016030;28;20498;-78
2022/04/07 01:54:11;;;;;;;10.18;6.78;;;;;;;6.38;100.00;98239.44;5022666;28;20021;-78
2022/04/07 01:56:39;;;;;;;8.88;6.85;;;;;;;6.40;100.00;98232.13;5018536;28;20034;-81
2022/04/07 01:59:07;;;;;;;11.68;7.32;;;;;;;6.43;100.00;98223.75;5011730;28;20121;-80
2022/04/07 02:01:32;;;;;;;14.70;8.35;;;;;;;6.59;100.00;98234.03;5021967;28;20056;-81
2022/04/07 02:03:58;;;;;;;10.50;8.23;;;;;;;6.60;100.00;98232.19;5013655;28;20493;-80
2022/04/07 02:06:25;;;;;;;14.17;10.20;;;;;;;6.66;100.00;98226.91;4995373;28;20021;-81
2022/04/07 02:08:50;;;;;;;14.10;9.57;;;;;;;6.68;100.00;98219.59;5010576;28;20025;-79
2022/04/07 02:11:16;;;;;;;14.80;9.90;;;;;;;6.72;100.00;98218.19;4998397;28;20114;-77
2022/04/07 02:13:42;;;;;;;15.52;8.77;;;;;;;6.74;100.00;98210.00;5002284;28;20041;-81
2022/04/07 02:16:08;;;;;;;16.48;10.27;;;;;;;6.81;100.00;98210.84;5005332;28;20037;-80
2022/04/07 02:18:34;;;;;;;15.20;10.15;;;;;;;6.80;100.00;98203.09;5001434;28;20029;-78
2022/04/07 02:21:00;;;;;;;13.02;9.75;;;;;;;6.83;100.00;98192.09;5002152;28;20101;-79
2022/04/07 02:23:27;;;;;;;15.02;10.27;;;;;;;6.89;100.00;98184.16;5033638;28;20044;-77
2022/04/07 02:25:52;;;;;;;14.85;10.75;;;;;;;6.95;100.00;98185.16;5022075;28;20071;-77
2022/04/07 02:28:18;;;;;;;15.32;10.05;;;;;;;7.01;100.00;98181.72;5022412;28;20017;-78
2022/04/07 02:30:45;;;;;;;16.80;11.50;;;;;;;7.09;100.00;98176.19;5026225;28;20051;-81
2022/04/07 02:33:11;;;;;;;15.10;10.25;;;;;;;7.14;100.00;98171.13;5023054;28;20060;-78
2022/04/07 02:35:36;;;;;;;15.95;11.90;;;;;;;7.16;100.00;98160.28;5000213;28;20061;-78
2022/04/07 02:38:01;;;;;;;18.80;10.83;;;;;;;7.25;100.00;98159.06;5011724;28;20459;-80
2022/04/07 02:40:27;;;;;;;14.47;10.67;;;;;;;7.25;100.00;98148.44;5044071;28;20041;-80
2022/04/07 02:42:52;;;;;;;12.50;9.17;;;;;;;7.28;100.00;98141.91;4997529;28;20029;-80
2022/04/07 02:45:18;;;;;;;18.30;9.90;;;;;;;7.31;100.00;98136.22;5021782;28;20112;-80
2022/04/07 02:47:43;;;;;;;12.03;8.73;;;;;;;7.25;100.00;98115.78;4997492;28;20025;-80
2022/04/07 02:50:09;;;;;;;18.27;10.20;;;;;;;7.33;100.00;98124.38;5022184;28;20044;-79
2022/04/07 02:52:34;;;;;;;13.48;9.40;;;;;;;7.35;100.00;98118.84;4998980;28;20470;-81
2022/04/07 02:55:00;;;;;;;18.00;10.10;;;;;;;7.28;100.00;98126.00;5023747;28;20107;-80
2022/04/07 02:57:30;;;;;;;12.15;9.05;;;;;;;7.23;100.00;98113.34;5002339;28;20466;-77
2022/04/07 02:59:58;;;;;;;15.48;10.48;;;;;;;7.24;100.00;98112.34;4997331;28;20500;-79
2022/04/07 03:02:24;;;;;;;16.10;10.68;;;;;;;7.19;100.00;98117.44;5013123;28;20025;-79
2022/04/07 03:04:49;;;;;;;18.55;10.70;;;;;;;7.10;100.00;98111.50;5009023;28;20178;-79
2022/04/07 03:07:14;;;;;;;20.63;11.63;;;;;;;7.14;100.00;98115.41;5021870;28;20927;-80
2022/04/07 03:09:40;;;;;;;18.47;10.10;;;;;;;7.14;100.00;98112.75;5004652;28;20034;-80
2022/04/07 03:12:05;;;;;;;14.83;10.63;;;;;;;7.15;100.00;98119.66;5012627;28;20037;-76
2022/04/07 03:14:31;;;;;;;13.45;9.77;;;;;;;7.17;100.00;98114.19;5019390;28;20482;-79
2022/04/07 03:16:58;;;;;;;16.60;10.97;;;;;;;7.12;100.00;98106.81;5005137;28;20137;-79
2022/04/07 03:19:23;;;;;;;15.93;10.43;;;;;;;7.13;100.00;98087.22;5002164;28;20279;-78
2022/04/07 03:21:49;;;;;;;19.17;10.32;;;;;;;7.24;100.00;98092.94;4996684;28;20033;-80
2022/04/07 03:24:14;;;;;;;16.23;10.53;;;;;;;7.23;100.00;98086.00;5029863;28;20035;-80
2022/04/07 03:26:40;;;;;;;14.10;9.37;;;;;;;7.24;100.00;98079.69;5024536;28;20500;-79
2022/04/07 03:29:06;;;;;;;13.57;9.32;;;;;;;7.33;100.00;98075.78;5023066;28;20041;-77
2022/04/07 03:31:31;;;;;;;14.65;9.65;;;;;;;7.27;100.00;98060.69;5015007;28;20037;-79
2022/04/07 03:33:57;;;;;;;15.87;9.63;;;;;;;7.23;100.00;98048.84;5015559;28;20040;-80
2022/04/07 03:36:22;;;;;;;14.47;10.33;;;;;;;7.29;100.00;98064.75;5022723;28;20099;-79
2022/04/07 03:38:50;;;;;;;16.20;9.87;;;;;;;7.26;100.00;98054.56;5042209;28;20024;-80
2022/04/07 03:41:16;;;;;;;19.98;10.10;;;;;;;7.22;100.00;98055.19;4996693;28;20040;-77
2022/04/07 03:43:42;;;;;;;16.38;9.98;;;;;;;7.19;100.00;98051.91;5018020;28;20055;-79
2022/04/07 03:46:12;;;;;;;18.17;11.18;;;;;;;7.23;100.00;98048.84;5015028;28;20213;-78
2022/04/07 03:48:38;;;;;;;17.45;10.65;;;;;;;7.17;100.00;98042.53;5000269;28;20503;-79
2022/04/07 03:51:03;;;;;;;15.63;10.10;;;;;;;7.09;100.00;98046.19;5006446;28;20040;-80
2022/04/07 03:53:29;;;;;;;18.37;11.30;;;;;;;7.08;100.00;98036.63;5038286;28;20045;-79
2022/04/07 03:55:54;;;;;;;17.42;11.80;;;;;;;7.09;100.00;98027.63;5003440;28;20033;-77
2022/04/07 03:58:20;;;;;;;23.35;11.85;;;;;;;7.05;100.00;98031.72;5020588;28;20041;-80
2022/04/07 04:00:45;;;;;;;18.40;11.65;;;;;;;7.07;100.00;98037.66;5008257;28;20037;-77
2022/04/07 04:03:11;;;;;;;17.63;11.87;;;;;;;6.98;100.00;98030.91;5012396;28;20025;-79
2022/04/07 04:05:36;;;;;;;16.17;11.50;;;;;;;6.98;100.00;98029.06;5004700;28;20449;-80
2022/04/07 04:08:02;;;;;;;15.53;11.40;;;;;;;6.99;100.00;98027.22;4997323;28;20065;-80
2022/04/07 04:10:27;;;;;;;15.90;10.33;;;;;;;6.97;100.00;98014.16;4998003;28;20029;-80
2022/04/07 04:12:52;;;;;;;14.60;9.10;;;;;;;7.00;100.00;98022.75;5015558;28;20037;-80
2022/04/07 04:15:18;;;;;;;10.97;8.03;;;;;;;6.90;100.00;98009.91;5035638;28;20017;-79
2022/04/07 04:17:44;;;;;;;9.15;6.28;;;;;;;6.90;100.00;97996.63;5043023;28;20037;-80
2022/04/07 04:20:10;;;;;;;10.70;5.10;;;;;;;6.81;100.00;98005.81;5003464;28;20282;-78
2022/04/07 04:22:36;;;;;;;;;;;;;;;6.68;100.00;98002.16;5018499;28;20124;-79
2022/04/07 04:25:01;;;;;;;;;;;;;;;6.57;100.00;98004.63;5017369;28;20011;-79
2022/04/07 04:27:26;;;;;;;6.00;3.13;;;;;;;6.39;100.00;97974.25;5002515;28;19920;-80
2022/04/07 04:29:52;;;;;;;7.17;2.90;;;;;;;6.32;100.00;97984.84;5004996;28;20052;-80
2022/04/07 04:32:17;;;;;;;7.03;2.43;;;;;;;6.22;100.00;97987.03;4995927;28;20029;-81
2022/04/07 04:34:42;;;;;;;3.27;2.00;;;;;;;6.28;100.00;97988.09;4996648;28;20032;-81
2022/04/07 04:37:08;;;;;;;2.87;1.90;;;;;;;6.19;100.00;97981.34;5028970;28;20040;-81
2022/04/07 04:39:33;;;;;;;4.50;1.70;;;;;;;6.13;100.00;97975.84;4995957;28;20400;-78
2022/04/07 04:41:59;;;;;;;4.23;1.83;;;;;;;6.13;100.00;97977.66;5033996;28;20047;-80
2022/04/07 04:44:24;;;;;;;1.50;0.80;;;;;;;6.13;100.00;97975.00;5029784;22;20388;-78
2022/04/07 04:46:49;;;;;;;3.47;1.40;;;;;;;6.13;100.00;97972.34;5021532;28;20049;-77
2022/04/07 04:49:15;;;;;;;4.10;1.10;;;;;;;6.11;100.00;97977.03;5034029;28;20029;-78
2022/04/07 04:51:40;;;;;;;3.90;1.73;;;;;;;6.09;100.00;97973.81;5014872;28;20041;-77
2022/04/07 04:54:05;;;;;;;5.17;1.40;;;;;;;6.12;100.00;97978.69;5015898;28;20394;-76
2022/04/07 04:56:31;;;;;;;4.17;2.30;;;;;;;6.06;100.00;97974.19;5008123;28;20436;-77
2022/04/07 04:58:57;;;;;;;3.20;1.65;;;;;;;5.97;100.00;97975.38;5024944;28;20367;-78
2022/04/07 05:01:23;;;;;;;2.63;1.38;;;;;;;6.00;100.00;97961.75;5016923;28;20048;-77
2022/04/07 05:03:49;;;;;;;2.83;1.65;;;;;;;5.98;100.00;97961.13;5000698;28;20022;-78
2022/04/07 05:06:14;;;;;;;2.80;2.27;;;;;;;5.99;100.00;97966.22;5025536;28;20029;-79
2022/04/07 05:08:40;;;;;;;2.20;1.40;;;;;;;6.00;100.00;97956.47;5016448;28;20132;-78
2022/04/07 05:11:05;;;;;;;4.53;2.03;;;;;;;5.97;100.00;97943.59;5008433;28;20025;-78
2022/04/07 05:13:30;;;;;;;2.57;1.33;;;;;;;5.99;100.00;97933.63;5026972;28;20091;-77
2022/04/07 05:15:56;;;;;;;4.33;1.20;;;;;;;6.03;100.00;97927.72;5020307;28;20404;-78
2022/04/07 05:18:21;;;;;;;1.37;1.17;;;;;;;6.06;100.00;97931.81;5025793;28;20049;-77
2022/04/07 05:20:46;;;;;;;1.63;1.33;;;;;;;6.03;100.00;97911.84;5020748;28;20029;-77
2022/04/07 05:23:12;;;;;;;2.80;1.60;;;;;;;6.05;100.00;97914.28;5030269;28;20043;-77
2022/04/07 05:25:37;;;;;;;3.00;1.70;;;;;;;6.07;100.00;97902.47;5009981;28;20407;-78
2022/04/07 05:28:03;;;;;;;2.27;1.67;;;;;;;5.99;100.00;97896.56;5009675;28;20033;-77
2022/04/07 05:30:28;;;;;;;5.00;1.70;;;;;;;6.01;100.00;97899.81;5003556;28;20025;-79
2022/04/07 05:32:53;;;;;;;5.57;2.20;;;;;;;6.01;100.00;97905.91;5014933;28;20068;-79
2022/04/07 05:35:19;;;;;;;4.20;2.47;;;;;;;6.02;100.00;97904.13;5011714;28;20030;-77
2022/04/07 05:37:44;;;;;;;6.45;2.95;;;;;;;6.02;100.00;97893.53;5010587;28;20150;-77
2022/04/07 05:40:12;;;;;;;4.70;3.40;;;;;;;6.07;100.00;97901.66;5026708;28;20064;-78
2022/04/07 05:42:38;;;;;;;7.47;4.00;;;;;;;6.13;100.00;97904.31;5009459;28;20538;-78
2022/04/07 05:45:04;;;;;;;6.35;4.72;;;;;;;6.18;100.00;97897.56;5012944;28;20025;-78
2022/04/07 05:47:29;;;;;;;10.82;5.15;;;;;;;6.25;100.00;97898.38;4993553;28;20768;-77
2022/04/07 05:49:55;;;;;;;9.20;5.90;;;;;;;6.39;100.00;97893.91;5019139;28;20063;-77
2022/04/07 05:52:21;;;;;;;12.13;6.05;;;;;;;6.45;100.00;97883.31;4999601;28;20036;-77
2022/04/07 05:54:46;;;;;;;12.43;6.70;;;;;;;6.51;100.00;97860.47;5017431;28;20394;-77
2022/04/07 05:57:12;;;;;;;10.83;5.23;;;;;;;6.55;100.00;97854.56;5025365;28;20475;-76
2022/04/07 05:59:37;;;;;;;9.13;5.20;;;;;;;6.58;100.00;97834.75;4993181;28;20375;-77
2022/04/07 06:02:03;;;;;;;11.03;5.57;;;;;;;6.62;100.00;97829.84;5010406;28;20398;-78
2022/04/07 06:04:28;;;;;;;7.57;5.40;;;;;;;6.66;100.00;97821.28;5013149;28;20029;-77
2022/04/07 06:06:53;;;;;;;8.23;5.93;;;;;;;6.67;100.00;97811.47;5021184;28;20482;-77
2022/04/07 06:09:19;;;;;;;10.13;5.60;;;;;;;6.70;100.00;97808.44;5012199;28;20061;-77
2022/04/07 06:11:44;;;;;;;11.67;6.10;;;;;;;6.72;100.00;97814.34;5015326;28;20040;-75
2022/04/07 06:14:09;;;;;;;10.47;5.47;;;;;;;6.71;100.00;97808.19;5028599;28;20037;-77
2022/04/07 06:16:35;;;;;;;10.17;5.30;;;;;;;6.78;100.00;97802.88;5030552;28;20037;-77
2022/04/07 06:19:00;;;;;;;7.43;5.43;;;;;;;6.87;100.00;97796.31;5021896;28;20033;-76
2022/04/07 06:21:29;;;;;;;12.33;6.83;;;;;;;6.85;100.00;97787.75;5017162;28;20064;-76
2022/04/07 06:23:55;;;;;;;14.75;8.70;;;;;;;6.84;100.00;97790.63;5019975;28;20057;-76
2022/04/07 06:26:20;;;;;;;10.07;6.43;;;;;;;6.81;100.00;97777.78;5004320;28;20043;-77
2022/04/07 06:28:46;;;;;;;11.23;7.80;;;;;;;6.83;100.00;97773.06;5038257;28;20549;-77
2022/04/07 06:31:11;;;;;;;19.83;7.68;;;;;;;6.90;100.00;97768.56;5033315;28;20033;-77
2022/04/07 06:33:37;;;;;;;15.20;7.50;;;;;;;6.88;100.00;97773.25;5015274;28;20041;-77
2022/04/07 06:36:03;;;;;;;10.07;6.73;;;;;;;6.95;100.00;97781.97;5014561;28;20048;-77
2022/04/07 06:38:30;;;;;;;17.65;8.15;;;;;;;6.93;100.00;97778.72;5004064;28;20120;-77
2022/04/07 06:41:00;;;;;;;15.55;7.93;;;;;;;6.89;100.00;97782.84;5012786;28;20036;-78
2022/04/07 06:43:26;;;;;;;18.50;8.20;;;;;;;6.83;100.00;97768.56;5028897;28;20036;-76
2022/04/07 06:45:51;;;;;;;17.60;8.80;;;;;;;6.88;100.00;97766.13;5019455;28;20021;-76
2022/04/07 06:48:16;;;;;;;17.50;9.23;;;;;;;6.80;100.00;97739.84;5024266;28;20449;-76
2022/04/07 06:50:44;;;;;;;20.13;9.20;;;;;;;6.71;100.00;97765.78;5025133;28;20125;-77
2022/04/07 06:53:11;;;;;;;13.75;8.32;;;;;;;6.67;100.00;97763.75;5011860;28;20037;-78
2022/04/07 06:55:37;;;;;;;5.93;3.40;;;;;;;6.59;100.00;97746.25;5030427;28;20442;-76
2022/04/07 06:58:04;;;;;;;9.77;3.38;;;;;;;6.59;100.00;97738.31;5038478;28;20108;-73
2022/04/07 07:00:35;;;;;;;10.43;5.90;;;;;;;6.58;100.00;97742.00;5014500;28;20037;-73
2022/04/07 07:03:03;;;;;;;14.10;7.63;;;;;;;6.58;100.00;97739.34;4994258;28;20061;-73
2022/04/07 07:05:33;;;;;;;17.33;9.05;;;;;;;6.57;100.00;97735.03;5037825;28;20096;-73
2022/04/07 07:08:17;;;;;;;16.67;9.25;;;;;;;6.60;100.00;97720.56;5037934;28;20025;-73
2022/04/07 07:10:47;;;;;;;21.95;11.27;;;;;;;6.58;100.00;97706.69;5039215;28;20037;-73
2022/04/07 07:13:16;;;;;;;15.88;8.80;;;;;;;6.59;100.00;97714.44;5021673;28;20034;-74
2022/04/07 07:15:44;;;;;;;20.92;10.73;;;;;;;6.58;100.00;97727.91;5010277;28;20018;-73
2022/04/07 07:18:10;;;;;;;19.73;10.55;;;;;;;6.54;100.00;97720.38;5010283;28;20150;-73
2022/04/07 07:20:35;;;;;;;19.40;10.83;;;;;;;6.59;100.00;97727.69;5020466;28;20470;-73
2022/04/07 07:23:01;;;;;;;20.80;10.20;;;;;;;6.51;100.00;97728.75;5020363;28;20128;-72
2022/04/07 07:25:27;;;;;;;21.63;11.63;;;;;;;6.56;100.00;97736.06;5036274;28;20175;-73
2022/04/07 07:27:52;;;;;;;8.98;5.85;;;;;;;6.53;100.00;97723.22;5010176;28;20496;-73
2022/04/07 07:30:18;;;;;;;8.70;4.87;;;;;;;6.59;100.00;97714.44;5027671;28;20155;-73
2022/04/07 07:32:45;;;;;;;11.18;5.03;;;;;;;6.70;100.00;97721.75;5026508;28;20060;-72
2022/04/07 07:35:11;;;;;;;10.73;6.07;;;;;;;6.75;100.00;97713.97;5026339;28;20036;-74
2022/04/07 07:37:46;;;;;;;8.90;6.03;;;;;;;6.89;100.00;97703.28;5025236;28;20030;-73
2022/04/07 07:40:12;;;;;;;18.08;7.38;;;;;;;7.01;100.00;97693.63;5027326;28;20040;-73
2022/04/07 07:42:37;;;;;;;17.05;6.13;;;;;;;7.12;100.00;97676.22;5000227;28;20505;-73
2022/04/07 07:45:04;;;;;;;10.23;5.73;;;;;;;7.15;100.00;97665.16;5034558;28;20036;-73
2022/04/07 07:47:29;;;;;;;10.10;6.10;;;;;;;7.19;100.00;97632.66;5037377;28;20108;-73
2022/04/07 07:49:55;;;;;;;12.30;6.03;;;;;;;7.21;100.00;97631.63;5020645;28;20636;-73
2022/04/07 07:52:20;;;;;;;8.97;5.60;;;;;;;7.09;100.00;97602.34;5031227;28;20021;-73
2022/04/07 07:54:45;;;;;;;11.10;5.33;;;;;;;7.10;100.00;97594.19;5017860;28;20029;-73
2022/04/07 07:57:11;;;;;;;11.67;4.37;;;;;;;6.94;100.00;97573.50;4997863;28;20055;-73
2022/04/07 07:59:36;;;;;;;8.23;5.83;;;;;;;6.91;100.00;97560.69;5012060;28;20486;-73
2022/04/07 08:02:02;;;;;;;9.90;6.07;;;;;;;6.93;100.00;97532.06;5019320;28;20029;-74
2022/04/07 08:04:27;;;;;;;16.20;5.95;;;;;;;6.92;100.00;97531.28;5015215;28;20037;-73
2022/04/07 08:06:53;;;;;;;15.63;6.97;;;;;;;6.94;100.00;97531.06;5030110;28;20025;-73
2022/04/07 08:09:18;;;;;;;12.88;6.40;;;;;;;6.92;100.00;97511.91;5027089;28;20403;-75
2022/04/07 08:11:44;;;;;;;16.73;8.03;;;;;;;6.94;100.00;97508.00;5030493;28;20824;-73
2022/04/07 08:14:09;;;;;;;13.77;7.70;;;;;;;6.90;100.00;97508.66;5025638;28;20126;-74
2022/04/07 08:16:36;;;;;;;19.77;7.68;;;;;;;6.94;100.00;97500.03;4999585;28;20029;-73
2022/04/07 08:19:02;;;;;;;21.33;9.07;;;;;;;6.94;100.00;97499.25;5035334;28;20520;-73
2022/04/07 08:21:27;;;;;;;21.88;8.40;;;;;;;6.93;100.00;97490.47;5026453;28;20021;-74
2022/04/07 08:23:53;;;;;;;20.67;8.70;;;;;;;6.97;100.00;97506.75;5022867;28;20113;-74
2022/04/07 08:26:19;;;;;;;23.85;9.05;;;;;;;6.98;100.00;97495.13;5013465;28;20495;-74
2022/04/07 08:28:44;;;;;;;19.00;9.43;;;;;;;6.95;100.00;97487.59;5025647;28;20215;-73
2022/04/07 08:31:09;;;;;;;13.17;8.20;;;;;;;6.95;100.00;97491.06;5008489;28;20120;-73
2022/04/07 08:33:35;;;;;;;15.97;8.67;;;;;;;6.96;100.00;97486.56;5037296;28;20033;-73
2022/04/07 08:36:00;;;;;;;14.13;8.63;;;;;;;6.94;100.00;97484.13;5035658;28;20146;-73
2022/04/07 08:38:26;;;;;;;18.73;9.17;;;;;;;6.96;100.00;97491.88;5035367;28;20108;-73
2022/04/07 08:40:51;;;;;;;13.90;8.20;;;;;;;6.94;100.00;97481.47;5037982;28;20299;-73
2022/04/07 08:43:20;;;;;;;13.87;8.10;;;;;;;7.00;100.00;97474.50;5016899;28;20038;-74
2022/04/07 08:45:47;;;;;;;12.32;7.50;;;;;;;7.01;100.00;97478.75;5004632;28;20040;-74
2022/04/07 08:48:13;;;;;;;12.77;7.97;;;;;;;7.04;100.00;97462.41;5000313;28;20124;-73
2022/04/07 08:50:40;;;;;;;15.73;6.70;;;;;;;7.07;100.00;97437.28;5019403;28;20159;-73
2022/04/07 08:53:06;;;;;;;16.45;9.55;;;;;;;7.04;100.00;97416.50;5034306;28;20036;-74
2022/04/07 08:55:33;;;;;;;9.98;5.88;;;;;;;7.05;100.00;97411.00;5007904;28;20021;-73
2022/04/07 08:58:00;;;;;;;10.73;5.50;;;;;;;7.01;100.00;97401.03;5009720;28;20034;-73
2022/04/07 09:00:26;;;;;;;12.40;6.53;;;;;;;7.02;100.00;97384.88;5024258;28;20022;-73
2022/04/07 09:02:53;;;;;;;8.77;5.13;;;;;;;7.01;100.00;97377.97;5021385;28;20029;-74
2022/04/07 09:05:23;;;;;;;7.80;5.43;;;;;;;7.01;100.00;97393.09;5012773;28;20021;-74
2022/04/07 09:07:50;;;;;;;15.13;6.32;;;;;;;7.05;100.00;97379.16;5024724;28;20149;-74
2022/04/07 09:10:19;;;;;;;11.32;5.40;;;;;;;7.01;100.00;97367.38;5013311;28;20475;-74
2022/04/07 09:12:44;;;;;;;8.65;6.05;;;;;;;7.04;100.00;97371.41;5020442;28;20037;-74
2022/04/07 09:15:12;;;;;;;11.60;5.50;;;;;;;7.05;100.00;97376.50;5025680;28;20694;-74
2022/04/07 09:17:55;;;;;;;11.50;6.80;;;;;;;7.01;100.00;97377.97;5024474;28;20784;-74
2022/04/07 09:20:22;;;;;;;10.23;6.45;;;;;;;6.96;100.00;97481.28;5026948;28;20065;-74
2022/04/07 09:22:58;;;;;;;6.55;2.45;;;;;;;6.12;100.00;97448.94;5026997;28;20112;-73
2022/04/07 09:25:26;;;;;;;1.58;0.90;;;;;;;5.53;100.00;97423.59;5015839;28;20033;-73
2022/04/07 09:27:53;;;;;;;2.92;0.70;;;;;;;5.27;100.00;97431.44;5007847;28;20083;-73
2022/04/07 09:30:20;;;;;;;0.65;0.52;;;;;;;4.97;100.00;97431.13;5024420;28;20039;-73
2022/04/07 09:32:46;;;;;;;0.75;0.35;;;;;;;4.83;100.00;97425.06;5024638;28;20029;-74
2022/04/07 09:35:13;;;;;;;1.52;0.70;;;;;;;4.82;100.00;97412.03;4994851;28;20036;-73
2022/04/07 09:37:40;;;;;;;;;;;;;;;4.84;100.00;97431.13;5032621;28;20037;-74
2022/04/07 09:40:12;;;;;;;1.45;0.40;;;;;;;4.73;100.00;97440.53;5008232;28;19912;-75
2022/04/07 09:42:41;;;;;;;0.77;0.30;;;;;;;4.75;100.00;97443.78;5026624;28;20037;-75
2022/04/07 09:45:11;;;;;;;1.80;0.40;;;;;;;4.66;100.00;97426.53;5034780;28;20034;-74
2022/04/07 09:47:48;;;;;;;2.88;0.60;;;;;;;4.68;100.00;97436.88;5020570;28;20113;-74
2022/04/07 09:50:20;;;;;;;1.65;0.52;;;;;;;4.76;100.00;97429.53;5020806;28;20799;-74
2022/04/07 09:53:03;;;;;;;0.80;0.50;;;;;;;4.73;100.00;97416.75;5021333;28;20034;-74
2022/04/07 09:55:40;;;;;;;1.27;0.60;;;;;;;4.78;100.00;97414.28;5018766;28;20029;-74
2022/04/07 09:58:07;;;;;;;1.48;0.50;;;;;;;4.70;100.00;97418.97;5029853;28;20033;-73
2022/04/07 10:00:33;;;;;;;1.52;0.55;;;;;;;4.68;100.00;97426.28;5007519;28;20552;-74
2022/04/07 10:02:59;;;;;;;1.45;0.80;;;;;;;4.49;100.00;97423.47;5033674;28;20040;-74
2022/04/07 10:05:25;;;;;;;1.42;0.70;;;;;;;4.59;100.00;97431.00;5024557;28;20124;-73
2022/04/07 10:07:50;;;;;;;0.73;0.40;;;;;;;4.59;100.00;97429.16;5019674;28;20178;-75
2022/04/07 10:10:18;;;;;;;0.50;0.40;;;;;;;4.55;100.00;97429.78;5011601;28;20032;-75
2022/04/07 10:12:46;;;;;;;2.25;0.70;;;;;;;4.53;100.00;97434.44;5031622;28;20098;-76
2022/04/07 10:15:12;;;;;;;4.70;1.98;;;;;;;4.49;100.00;97433.22;4991670;28;20030;-76
2022/04/07 10:17:38;;;;;;;1.73;0.77;;;;;;;4.52;100.00;97428.38;5019478;28;20032;-77
2022/04/07 10:20:08;;;;;;;4.97;1.10;;;;;;;4.54;100.00;97421.06;5019199;28;20838;-75
2022/04/07 10:22:47;;;;;;;3.50;0.90;;;;;;;4.55;100.00;97406.81;5010602;28;20025;-77
2022/04/07 10:25:15;;;;;;;1.40;0.40;;;;;;;4.47;100.00;97396.44;5030248;28;20120;-75
2022/04/07 10:27:45;;;;;;;3.60;0.70;;;;;;;4.49;100.00;97381.19;5007746;28;20588;-75
2022/04/07 10:30:13;;;;;;;1.67;0.85;;;;;;;4.47;100.00;97379.78;5023925;28;20037;-76
2022/04/07 10:32:50;;;;;;;2.55;0.80;;;;;;;4.47;100.00;97377.94;5007237;28;20812;-74
2022/04/07 10:35:32;;;;;;;1.98;0.55;;;;;;;4.49;100.00;97375.91;4988154;28;20034;-77
2022/04/07 10:38:00;;;;;;;2.60;0.43;;;;;;;4.35;100.00;97379.59;5026763;28;20069;-76
2022/04/07 10:40:35;;;;;;;3.20;0.60;;;;;;;4.46;100.00;97378.16;5007226;28;20013;-75
2022/04/07 10:43:19;;;;;;;1.98;0.70;;;;;;;4.41;100.00;97378.78;5021815;28;20046;-75
2022/04/07 10:46:09;;;;;;;3.42;1.05;;;;;;;4.37;100.00;97373.09;5055893;22;20060;-87
2022/04/07 10:49:03;;;;;;;2.40;0.60;;;;;;;4.37;100.00;97348.50;5015089;28;20041;-88
2022/04/07 10:51:51;;;;;;;2.75;0.80;;;;;;;4.38;100.00;97339.59;4998155;28;20029;-89
2022/04/07 10:54:17;;;;;;;4.63;1.13;;;;;;;4.38;100.00;97326.38;5007295;28;20033;-89
2022/04/07 10:56:48;;;;;;;3.28;0.90;;;;;;;4.39;100.00;97339.38;4998465;28;20108;-90
2022/04/07 10:59:17;;;;;;;1.10;0.55;;;;;;;4.38;100.00;97329.81;5014633;28;20026;-89
2022/04/07 11:01:42;;;;;;;4.28;0.70;;;;;;;4.43;100.00;97355.63;4998578;28;20061;-89
2022/04/07 11:04:26;;;;;;;1.60;0.53;;;;;;;4.37;100.00;97314.19;4998386;28;20068;-91
2022/04/07 11:09:54;;;;;;;3.90;0.63;;;;;;;4.30;100.00;97313.38;5014632;28;20149;-91
2022/04/07 11:12:34;;;;;;;3.60;1.02;;;;;;;4.37;100.00;97325.53;5027194;28;20029;-90
2022/04/07 11:15:03;;;;;;;2.70;1.60;;;;;;;4.39;100.00;97328.78;4996339;28;20038;-90
2022/04/07 11:17:46;;;;;;;1.40;0.98;;;;;;;4.35;100.00;97332.84;4998193;28;20018;-89
2022/04/07 11:20:15;;;;;;;3.95;0.75;;;;;;;4.49;100.00;97351.34;5016737;28;20036;-90
2022/04/07 11:22:56;;;;;;;2.83;1.27;;;;;;;4.55;100.00;97369.81;5030408;28;20087;-91
2022/04/07 11:25:22;;;;;;;2.80;0.98;;;;;;;4.48;100.00;97357.66;4994586;28;20030;-89
2022/04/07 11:28:06;;;;;;;4.18;1.00;;;;;;;4.41;100.00;97362.94;5010332;28;20033;-89
2022/04/07 11:30:37;;;;;;;2.80;0.80;;;;;;;4.64;100.00;97352.72;5024211;28;20036;-90
2022/04/07 11:33:18;;;;;;;4.75;0.98;;;;;;;4.98;100.00;97348.13;4997762;28;20083;-89